sensor_id;sensor_type;location;lat;lon;timestamp;temperature;humidity
18169;DHT22;49877;50.398;30.324;2022-10-31T00:00:06;9.60;99.90
18169;DHT22;49877;50.398;30.324;2022-10-31T00:02:33;9.60;99.90
18169;DHT22;49877;50.398;30.324;2022-10-31T00:05:00;9.60;99.90
18169;DHT22;49877;50.398;30.324;2022-10-31T00:07:27;9.60;99.90
18169;DHT22;49877;50.398;30.324;2022-10-31T00:09:53;9.60;99.90
18169;DHT22;49877;50.398;30.324;2022-10-31T00:12:20;9.60;99.90
18169;DHT22;49877;50.398;30.324;2022-10-31T00:14:49;9.60;99.90
18169;DHT22;49877;50.398;30.324;2022-10-31T00:17:15;9.60;99.90
18169;DHT22;49877;50.398;30.324;2022-10-31T00:19:42;9.60;99.90
18169;DHT22;49877;50.398;30.324;2022-10-31T00:22:09;9.50;99.90
18169;DHT22;49877;50.398;30.324;2022-10-31T00:24:36;9.60;99.90
18169;DHT22;49877;50.398;30.324;2022-10-31T00:27:03;9.60;99.90
18169;DHT22;49877;50.398;30.324;2022-10-31T00:29:30;9.50;99.90
18169;DHT22;49877;50.398;30.324;2022-10-31T00:31:58;9.50;99.90
18169;DHT22;49877;50.398;30.324;2022-10-31T00:34:25;9.50;99.90
18169;DHT22;49877;50.398;30.324;2022-10-31T00:36:51;9.50;99.90
18169;DHT22;49877;50.398;30.324;2022-10-31T00:39:18;9.50;99.90
18169;DHT22;49877;50.398;30.324;2022-10-31T00:41:45;9.40;99.90
18169;DHT22;49877;50.398;30.324;2022-10-31T00:44:12;9.40;99.90
18169;DHT22;49877;50.398;30.324;2022-10-31T00:46:38;9.50;99.90
18169;DHT22;49877;50.398;30.324;2022-10-31T00:49:07;9.50;99.90
18169;DHT22;49877;50.398;30.324;2022-10-31T00:51:33;9.40;99.90
18169;DHT22;49877;50.398;30.324;2022-10-31T00:54:00;9.40;99.90
18169;DHT22;49877;50.398;30.324;2022-10-31T00:56:27;9.40;99.90
18169;DHT22;49877;50.398;30.324;2022-10-31T00:58:54;9.40;99.90
18169;DHT22;49877;50.398;30.324;2022-10-31T01:01:21;9.30;99.90
18169;DHT22;49877;50.398;30.324;2022-10-31T01:03:47;9.30;99.90
18169;DHT22;49877;50.398;30.324;2022-10-31T01:06:15;9.30;99.90
18169;DHT22;49877;50.398;30.324;2022-10-31T01:08:42;9.30;99.90
18169;DHT22;49877;50.398;30.324;2022-10-31T01:11:11;9.30;99.90
18169;DHT22;49877;50.398;30.324;2022-10-31T01:13:39;9.30;99.90
18169;DHT22;49877;50.398;30.324;2022-10-31T01:16:08;9.20;99.90
18169;DHT22;49877;50.398;30.324;2022-10-31T01:18:36;9.30;99.90
18169;DHT22;49877;50.398;30.324;2022-10-31T01:21:04;9.30;99.90
18169;DHT22;49877;50.398;30.324;2022-10-31T01:23:33;9.30;99.90
18169;DHT22;49877;50.398;30.324;2022-10-31T01:26:02;9.30;99.90
18169;DHT22;49877;50.398;30.324;2022-10-31T01:28:29;9.30;99.90
18169;DHT22;49877;50.398;30.324;2022-10-31T01:31:00;9.30;99.90
18169;DHT22;49877;50.398;30.324;2022-10-31T01:33:27;9.30;99.90
18169;DHT22;49877;50.398;30.324;2022-10-31T01:35:53;9.30;99.90
18169;DHT22;49877;50.398;30.324;2022-10-31T01:38:20;9.20;99.90
18169;DHT22;49877;50.398;30.324;2022-10-31T01:40:48;9.30;99.90
18169;DHT22;49877;50.398;30.324;2022-10-31T01:43:16;9.30;99.90
18169;DHT22;49877;50.398;30.324;2022-10-31T01:45:44;9.30;99.90
18169;DHT22;49877;50.398;30.324;2022-10-31T01:48:14;9.20;99.90
18169;DHT22;49877;50.398;30.324;2022-10-31T01:50:43;9.30;99.90
18169;DHT22;49877;50.398;30.324;2022-10-31T01:53:12;9.20;99.90
18169;DHT22;49877;50.398;30.324;2022-10-31T01:55:40;9.30;99.90
18169;DHT22;49877;50.398;30.324;2022-10-31T01:58:13;9.20;99.90
18169;DHT22;49877;50.398;30.324;2022-10-31T02:00:43;9.20;99.90
18169;DHT22;49877;50.398;30.324;2022-10-31T02:03:11;9.20;99.90
18169;DHT22;49877;50.398;30.324;2022-10-31T02:05:38;9.20;99.90
18169;DHT22;49877;50.398;30.324;2022-10-31T02:08:08;9.20;99.90
18169;DHT22;49877;50.398;30.324;2022-10-31T02:10:37;9.20;99.90
18169;DHT22;49877;50.398;30.324;2022-10-31T02:13:06;9.10;99.90
18169;DHT22;49877;50.398;30.324;2022-10-31T02:15:35;9.10;99.90
18169;DHT22;49877;50.398;30.324;2022-10-31T02:18:03;9.10;99.90
18169;DHT22;49877;50.398;30.324;2022-10-31T02:20:34;9.00;99.90
18169;DHT22;49877;50.398;30.324;2022-10-31T02:23:20;9.00;99.90
18169;DHT22;49877;50.398;30.324;2022-10-31T02:26:15;9.00;99.90
18169;DHT22;49877;50.398;30.324;2022-10-31T02:29:04;9.00;99.90
18169;DHT22;49877;50.398;30.324;2022-10-31T02:31:38;8.90;99.90
18169;DHT22;49877;50.398;30.324;2022-10-31T02:34:14;8.90;99.90
18169;DHT22;49877;50.398;30.324;2022-10-31T02:37:05;8.80;99.90
18169;DHT22;49877;50.398;30.324;2022-10-31T02:39:37;8.80;99.90
18169;DHT22;49877;50.398;30.324;2022-10-31T02:42:12;8.80;99.90
18169;DHT22;49877;50.398;30.324;2022-10-31T02:44:44;8.80;99.90
18169;DHT22;49877;50.398;30.324;2022-10-31T02:47:15;8.80;99.90
18169;DHT22;49877;50.398;30.324;2022-10-31T02:49:47;8.80;99.90
18169;DHT22;49877;50.398;30.324;2022-10-31T02:52:18;8.70;99.90
18169;DHT22;49877;50.398;30.324;2022-10-31T02:54:46;8.70;99.90
18169;DHT22;49877;50.398;30.324;2022-10-31T02:57:15;8.70;99.90
18169;DHT22;49877;50.398;30.324;2022-10-31T02:59:47;8.70;99.90
18169;DHT22;49877;50.398;30.324;2022-10-31T03:02:29;8.70;99.90
18169;DHT22;49877;50.398;30.324;2022-10-31T03:05:22;8.70;99.90
18169;DHT22;49877;50.398;30.324;2022-10-31T03:07:57;8.70;99.90
18169;DHT22;49877;50.398;30.324;2022-10-31T03:10:35;8.60;99.90
18169;DHT22;49877;50.398;30.324;2022-10-31T03:13:08;8.60;99.90
18169;DHT22;49877;50.398;30.324;2022-10-31T03:15:38;8.60;99.90
18169;DHT22;49877;50.398;30.324;2022-10-31T03:18:09;8.60;99.90
18169;DHT22;49877;50.398;30.324;2022-10-31T03:20:40;8.60;99.90
18169;DHT22;49877;50.398;30.324;2022-10-31T03:23:11;8.60;99.90
18169;DHT22;49877;50.398;30.324;2022-10-31T03:25:39;8.60;99.90
18169;DHT22;49877;50.398;30.324;2022-10-31T03:28:07;8.60;99.90
18169;DHT22;49877;50.398;30.324;2022-10-31T03:30:37;8.60;99.90
18169;DHT22;49877;50.398;30.324;2022-10-31T03:33:10;8.50;99.90
18169;DHT22;49877;50.398;30.324;2022-10-31T03:35:39;8.60;99.90
18169;DHT22;49877;50.398;30.324;2022-10-31T03:38:09;8.60;99.90
18169;DHT22;49877;50.398;30.324;2022-10-31T03:40:37;8.60;99.90
18169;DHT22;49877;50.398;30.324;2022-10-31T03:43:09;8.60;99.90
18169;DHT22;49877;50.398;30.324;2022-10-31T03:45:41;8.60;99.90
18169;DHT22;49877;50.398;30.324;2022-10-31T03:48:11;8.50;99.90
18169;DHT22;49877;50.398;30.324;2022-10-31T03:50:42;8.60;99.90
18169;DHT22;49877;50.398;30.324;2022-10-31T03:53:16;8.60;99.90
18169;DHT22;49877;50.398;30.324;2022-10-31T03:55:49;8.60;99.90
18169;DHT22;49877;50.398;30.324;2022-10-31T03:58:21;8.50;99.90
18169;DHT22;49877;50.398;30.324;2022-10-31T04:00:51;8.50;99.90
18169;DHT22;49877;50.398;30.324;2022-10-31T04:03:23;8.50;99.90
18169;DHT22;49877;50.398;30.324;2022-10-31T04:05:53;8.50;99.90
18169;DHT22;49877;50.398;30.324;2022-10-31T04:08:24;8.50;99.90
18169;DHT22;49877;50.398;30.324;2022-10-31T04:10:54;8.40;99.90
18169;DHT22;49877;50.398;30.324;2022-10-31T04:13:25;8.40;99.90
18169;DHT22;49877;50.398;30.324;2022-10-31T04:15:54;8.40;99.90
18169;DHT22;49877;50.398;30.324;2022-10-31T04:18:23;8.40;99.90
18169;DHT22;49877;50.398;30.324;2022-10-31T04:20:59;8.40;99.90
18169;DHT22;49877;50.398;30.324;2022-10-31T04:23:26;8.40;99.90
18169;DHT22;49877;50.398;30.324;2022-10-31T04:25:53;8.40;99.90
18169;DHT22;49877;50.398;30.324;2022-10-31T04:28:21;8.30;99.90
18169;DHT22;49877;50.398;30.324;2022-10-31T04:30:47;8.30;99.90
18169;DHT22;49877;50.398;30.324;2022-10-31T04:33:14;8.30;99.90
18169;DHT22;49877;50.398;30.324;2022-10-31T04:35:43;8.20;99.90
18169;DHT22;49877;50.398;30.324;2022-10-31T04:38:09;8.30;99.90
18169;DHT22;49877;50.398;30.324;2022-10-31T04:40:36;8.20;99.90
18169;DHT22;49877;50.398;30.324;2022-10-31T04:43:03;8.20;99.90
18169;DHT22;49877;50.398;30.324;2022-10-31T04:45:30;8.10;99.90
18169;DHT22;49877;50.398;30.324;2022-10-31T04:47:57;8.10;99.90
18169;DHT22;49877;50.398;30.324;2022-10-31T04:50:23;8.10;99.90
18169;DHT22;49877;50.398;30.324;2022-10-31T04:52:52;8.10;99.90
18169;DHT22;49877;50.398;30.324;2022-10-31T04:55:19;8.00;99.90
18169;DHT22;49877;50.398;30.324;2022-10-31T04:57:47;8.00;99.90
18169;DHT22;49877;50.398;30.324;2022-10-31T05:00:16;8.00;99.90
18169;DHT22;49877;50.398;30.324;2022-10-31T05:02:44;8.00;99.90
18169;DHT22;49877;50.398;30.324;2022-10-31T05:05:12;7.90;99.90
18169;DHT22;49877;50.398;30.324;2022-10-31T05:07:39;7.90;99.90
18169;DHT22;49877;50.398;30.324;2022-10-31T05:10:08;7.90;99.90
18169;DHT22;49877;50.398;30.324;2022-10-31T05:12:36;7.90;99.90
18169;DHT22;49877;50.398;30.324;2022-10-31T05:15:04;7.80;99.90
18169;DHT22;49877;50.398;30.324;2022-10-31T05:17:31;7.80;99.90
18169;DHT22;49877;50.398;30.324;2022-10-31T05:19:58;7.70;99.90
18169;DHT22;49877;50.398;30.324;2022-10-31T05:22:25;7.70;99.90
18169;DHT22;49877;50.398;30.324;2022-10-31T05:24:52;7.70;99.90
18169;DHT22;49877;50.398;30.324;2022-10-31T05:27:20;7.70;99.90
18169;DHT22;49877;50.398;30.324;2022-10-31T05:29:47;7.70;99.90
18169;DHT22;49877;50.398;30.324;2022-10-31T05:32:13;7.70;99.90
18169;DHT22;49877;50.398;30.324;2022-10-31T05:34:40;7.70;99.90
18169;DHT22;49877;50.398;30.324;2022-10-31T05:37:07;7.70;99.90
18169;DHT22;49877;50.398;30.324;2022-10-31T05:39:34;7.70;99.90
18169;DHT22;49877;50.398;30.324;2022-10-31T05:42:01;7.70;99.90
18169;DHT22;49877;50.398;30.324;2022-10-31T05:44:29;7.70;99.90
18169;DHT22;49877;50.398;30.324;2022-10-31T05:46:56;7.70;99.90
18169;DHT22;49877;50.398;30.324;2022-10-31T05:49:22;7.70;99.90
18169;DHT22;49877;50.398;30.324;2022-10-31T05:51:49;7.70;99.90
18169;DHT22;49877;50.398;30.324;2022-10-31T05:54:16;7.70;99.90
18169;DHT22;49877;50.398;30.324;2022-10-31T05:56:43;7.60;99.90
18169;DHT22;49877;50.398;30.324;2022-10-31T05:59:09;7.60;99.90
18169;DHT22;49877;50.398;30.324;2022-10-31T06:01:37;7.70;99.90
18169;DHT22;49877;50.398;30.324;2022-10-31T06:17:27;7.70;99.90
18169;DHT22;49877;50.398;30.324;2022-10-31T06:19:54;8.10;99.90
18169;DHT22;49877;50.398;30.324;2022-10-31T06:22:21;8.10;99.90
18169;DHT22;49877;50.398;30.324;2022-10-31T06:24:48;8.10;99.90
18169;DHT22;49877;50.398;30.324;2022-10-31T06:27:15;8.00;99.90
18169;DHT22;49877;50.398;30.324;2022-10-31T06:29:41;8.00;99.90
18169;DHT22;49877;50.398;30.324;2022-10-31T06:32:10;8.00;99.90
18169;DHT22;49877;50.398;30.324;2022-10-31T06:34:38;8.00;99.90
18169;DHT22;49877;50.398;30.324;2022-10-31T06:37:06;8.00;99.90
18169;DHT22;49877;50.398;30.324;2022-10-31T06:39:33;8.00;99.90
18169;DHT22;49877;50.398;30.324;2022-10-31T06:42:00;8.00;99.90
18169;DHT22;49877;50.398;30.324;2022-10-31T06:44:27;8.00;99.90
18169;DHT22;49877;50.398;30.324;2022-10-31T06:46:53;8.00;99.90
18169;DHT22;49877;50.398;30.324;2022-10-31T06:49:20;7.90;99.90
18169;DHT22;49877;50.398;30.324;2022-10-31T06:51:49;8.00;99.90
18169;DHT22;49877;50.398;30.324;2022-10-31T06:54:16;8.00;99.90
18169;DHT22;49877;50.398;30.324;2022-10-31T06:56:45;8.00;99.90
18169;DHT22;49877;50.398;30.324;2022-10-31T06:59:13;8.00;99.90
18169;DHT22;49877;50.398;30.324;2022-10-31T07:01:40;8.00;99.90
18169;DHT22;49877;50.398;30.324;2022-10-31T07:04:10;8.00;99.90
18169;DHT22;49877;50.398;30.324;2022-10-31T07:06:37;8.00;99.90
18169;DHT22;49877;50.398;30.324;2022-10-31T07:09:05;8.00;99.90
18169;DHT22;49877;50.398;30.324;2022-10-31T07:11:32;8.00;99.90
18169;DHT22;49877;50.398;30.324;2022-10-31T07:13:59;8.00;99.90
18169;DHT22;49877;50.398;30.324;2022-10-31T07:16:26;8.00;99.90
18169;DHT22;49877;50.398;30.324;2022-10-31T07:18:52;8.00;99.90
18169;DHT22;49877;50.398;30.324;2022-10-31T07:21:19;8.10;99.90
18169;DHT22;49877;50.398;30.324;2022-10-31T07:23:47;8.10;99.90
18169;DHT22;49877;50.398;30.324;2022-10-31T07:26:15;8.00;99.90
18169;DHT22;49877;50.398;30.324;2022-10-31T07:28:42;8.10;99.90
18169;DHT22;49877;50.398;30.324;2022-10-31T07:31:09;8.10;99.90
18169;DHT22;49877;50.398;30.324;2022-10-31T07:33:36;8.10;99.90
18169;DHT22;49877;50.398;30.324;2022-10-31T07:36:03;8.10;99.90
18169;DHT22;49877;50.398;30.324;2022-10-31T07:38:30;8.10;99.90
18169;DHT22;49877;50.398;30.324;2022-10-31T07:40:56;8.10;99.90
18169;DHT22;49877;50.398;30.324;2022-10-31T07:43:24;8.10;99.90
18169;DHT22;49877;50.398;30.324;2022-10-31T07:45:51;8.20;99.90
18169;DHT22;49877;50.398;30.324;2022-10-31T07:48:19;8.20;99.90
18169;DHT22;49877;50.398;30.324;2022-10-31T07:50:46;8.20;99.90
18169;DHT22;49877;50.398;30.324;2022-10-31T07:53:13;8.30;99.90
18169;DHT22;49877;50.398;30.324;2022-10-31T07:55:41;8.30;99.90
18169;DHT22;49877;50.398;30.324;2022-10-31T07:58:09;8.30;99.90
18169;DHT22;49877;50.398;30.324;2022-10-31T08:01:01;8.30;99.90
18169;DHT22;49877;50.398;30.324;2022-10-31T08:03:27;8.30;99.90
18169;DHT22;49877;50.398;30.324;2022-10-31T08:05:55;8.30;99.90
18169;DHT22;49877;50.398;30.324;2022-10-31T08:08:22;8.20;99.90
18169;DHT22;49877;50.398;30.324;2022-10-31T08:10:49;8.30;99.90
18169;DHT22;49877;50.398;30.324;2022-10-31T08:13:16;8.30;99.90
18169;DHT22;49877;50.398;30.324;2022-10-31T08:15:43;8.40;99.90
18169;DHT22;49877;50.398;30.324;2022-10-31T08:18:16;8.40;99.90
18169;DHT22;49877;50.398;30.324;2022-10-31T08:20:43;8.40;99.90
18169;DHT22;49877;50.398;30.324;2022-10-31T08:23:11;8.40;99.90
18169;DHT22;49877;50.398;30.324;2022-10-31T08:25:39;8.40;99.90
18169;DHT22;49877;50.398;30.324;2022-10-31T08:28:06;8.50;99.90
18169;DHT22;49877;50.398;30.324;2022-10-31T08:30:36;8.50;99.90
18169;DHT22;49877;50.398;30.324;2022-10-31T08:33:04;8.60;99.90
18169;DHT22;49877;50.398;30.324;2022-10-31T08:35:33;8.60;99.90
18169;DHT22;49877;50.398;30.324;2022-10-31T08:38:00;8.70;99.90
18169;DHT22;49877;50.398;30.324;2022-10-31T08:40:30;8.70;99.90
18169;DHT22;49877;50.398;30.324;2022-10-31T08:42:58;8.70;99.90
18169;DHT22;49877;50.398;30.324;2022-10-31T08:45:26;8.80;99.90
18169;DHT22;49877;50.398;30.324;2022-10-31T08:47:56;8.80;99.90
18169;DHT22;49877;50.398;30.324;2022-10-31T08:50:24;8.80;99.90
18169;DHT22;49877;50.398;30.324;2022-10-31T08:52:52;8.90;99.90
18169;DHT22;49877;50.398;30.324;2022-10-31T08:55:19;8.90;99.90
18169;DHT22;49877;50.398;30.324;2022-10-31T08:57:45;8.90;99.90
18169;DHT22;49877;50.398;30.324;2022-10-31T09:00:13;9.00;99.90
18169;DHT22;49877;50.398;30.324;2022-10-31T09:02:39;9.00;99.90
18169;DHT22;49877;50.398;30.324;2022-10-31T09:05:07;9.00;99.90
18169;DHT22;49877;50.398;30.324;2022-10-31T09:07:34;9.10;99.90
18169;DHT22;49877;50.398;30.324;2022-10-31T09:10:02;9.10;99.90
18169;DHT22;49877;50.398;30.324;2022-10-31T09:12:29;9.10;99.90
18169;DHT22;49877;50.398;30.324;2022-10-31T09:14:56;9.10;99.90
18169;DHT22;49877;50.398;30.324;2022-10-31T09:17:22;9.20;99.90
18169;DHT22;49877;50.398;30.324;2022-10-31T09:19:49;9.20;99.90
18169;DHT22;49877;50.398;30.324;2022-10-31T09:22:16;9.20;99.90
18169;DHT22;49877;50.398;30.324;2022-10-31T09:24:43;9.20;99.90
18169;DHT22;49877;50.398;30.324;2022-10-31T09:27:11;9.30;99.90
18169;DHT22;49877;50.398;30.324;2022-10-31T09:29:38;9.30;99.90
18169;DHT22;49877;50.398;30.324;2022-10-31T09:32:04;9.30;99.90
18169;DHT22;49877;50.398;30.324;2022-10-31T09:34:31;9.40;99.90
18169;DHT22;49877;50.398;30.324;2022-10-31T09:36:58;9.40;99.90
18169;DHT22;49877;50.398;30.324;2022-10-31T09:39:25;9.50;99.90
18169;DHT22;49877;50.398;30.324;2022-10-31T09:42:23;9.50;99.90
18169;DHT22;49877;50.398;30.324;2022-10-31T09:44:58;9.50;99.90
18169;DHT22;49877;50.398;30.324;2022-10-31T09:47:37;9.50;99.90
18169;DHT22;49877;50.398;30.324;2022-10-31T09:50:13;9.50;99.90
18169;DHT22;49877;50.398;30.324;2022-10-31T09:52:43;9.60;99.90
18169;DHT22;49877;50.398;30.324;2022-10-31T09:55:16;9.60;99.90
18169;DHT22;49877;50.398;30.324;2022-10-31T09:57:45;9.60;99.90
18169;DHT22;49877;50.398;30.324;2022-10-31T10:00:16;9.70;99.90
18169;DHT22;49877;50.398;30.324;2022-10-31T10:02:47;9.70;99.90
18169;DHT22;49877;50.398;30.324;2022-10-31T10:05:19;9.70;99.90
18169;DHT22;49877;50.398;30.324;2022-10-31T10:07:54;9.80;99.90
18169;DHT22;49877;50.398;30.324;2022-10-31T10:10:35;9.80;99.90
18169;DHT22;49877;50.398;30.324;2022-10-31T10:13:27;9.80;99.90
18169;DHT22;49877;50.398;30.324;2022-10-31T10:19:06;9.70;99.90
18169;DHT22;49877;50.398;30.324;2022-10-31T10:21:48;9.80;99.90
18169;DHT22;49877;50.398;30.324;2022-10-31T10:24:28;9.70;99.90
18169;DHT22;49877;50.398;30.324;2022-10-31T10:27:05;9.70;99.90
18169;DHT22;49877;50.398;30.324;2022-10-31T10:29:40;9.80;99.90
18169;DHT22;49877;50.398;30.324;2022-10-31T10:32:15;9.80;99.90
18169;DHT22;49877;50.398;30.324;2022-10-31T10:34:49;9.90;99.90
18169;DHT22;49877;50.398;30.324;2022-10-31T10:37:24;9.90;99.90
18169;DHT22;49877;50.398;30.324;2022-10-31T10:39:55;10.00;99.90
18169;DHT22;49877;50.398;30.324;2022-10-31T10:42:25;10.00;99.90
18169;DHT22;49877;50.398;30.324;2022-10-31T10:45:16;10.00;99.90
18169;DHT22;49877;50.398;30.324;2022-10-31T10:48:07;10.00;99.90
18169;DHT22;49877;50.398;30.324;2022-10-31T10:50:41;10.00;99.90
18169;DHT22;49877;50.398;30.324;2022-10-31T10:53:20;10.00;99.90
18169;DHT22;49877;50.398;30.324;2022-10-31T10:56:02;10.00;99.90
18169;DHT22;49877;50.398;30.324;2022-10-31T10:58:30;10.00;99.90
18169;DHT22;49877;50.398;30.324;2022-10-31T11:00:58;10.10;99.90
18169;DHT22;49877;50.398;30.324;2022-10-31T11:03:25;10.20;99.90
18169;DHT22;49877;50.398;30.324;2022-10-31T11:05:53;10.20;99.90
18169;DHT22;49877;50.398;30.324;2022-10-31T11:08:26;10.20;99.90
18169;DHT22;49877;50.398;30.324;2022-10-31T11:10:58;10.30;99.90
18169;DHT22;49877;50.398;30.324;2022-10-31T11:13:25;10.20;99.90
18169;DHT22;49877;50.398;30.324;2022-10-31T11:15:57;10.20;99.80
18169;DHT22;49877;50.398;30.324;2022-10-31T11:18:28;10.20;99.10
18169;DHT22;49877;50.398;30.324;2022-10-31T11:20:57;10.30;99.10
18169;DHT22;49877;50.398;30.324;2022-10-31T11:23:25;10.40;99.00
18169;DHT22;49877;50.398;30.324;2022-10-31T11:25:55;10.40;98.80
18169;DHT22;49877;50.398;30.324;2022-10-31T11:28:22;10.50;98.40
18169;DHT22;49877;50.398;30.324;2022-10-31T11:30:52;10.50;98.30
18169;DHT22;49877;50.398;30.324;2022-10-31T11:33:24;10.50;98.60
18169;DHT22;49877;50.398;30.324;2022-10-31T11:35:54;10.50;98.70
18169;DHT22;49877;50.398;30.324;2022-10-31T11:38:23;10.50;98.80
18169;DHT22;49877;50.398;30.324;2022-10-31T11:40:53;10.50;98.50
18169;DHT22;49877;50.398;30.324;2022-10-31T11:43:21;10.60;98.60
18169;DHT22;49877;50.398;30.324;2022-10-31T11:45:48;10.60;97.60
18169;DHT22;49877;50.398;30.324;2022-10-31T11:48:17;10.60;97.20
18169;DHT22;49877;50.398;30.324;2022-10-31T11:50:48;10.60;96.80
18169;DHT22;49877;50.398;30.324;2022-10-31T11:53:19;10.60;97.10
18169;DHT22;49877;50.398;30.324;2022-10-31T11:55:47;10.60;97.20
18169;DHT22;49877;50.398;30.324;2022-10-31T11:58:26;10.60;96.70
18169;DHT22;49877;50.398;30.324;2022-10-31T12:00:55;10.60;96.70
18169;DHT22;49877;50.398;30.324;2022-10-31T12:03:45;10.60;96.40
18169;DHT22;49877;50.398;30.324;2022-10-31T12:06:18;10.60;96.50
18169;DHT22;49877;50.398;30.324;2022-10-31T12:08:48;10.60;96.90
18169;DHT22;49877;50.398;30.324;2022-10-31T12:11:33;10.60;96.70
18169;DHT22;49877;50.398;30.324;2022-10-31T12:14:12;10.60;96.60
18169;DHT22;49877;50.398;30.324;2022-10-31T12:16:46;10.60;96.50
18169;DHT22;49877;50.398;30.324;2022-10-31T12:19:20;10.60;96.90
18169;DHT22;49877;50.398;30.324;2022-10-31T12:22:05;10.70;97.10
18169;DHT22;49877;50.398;30.324;2022-10-31T12:24:45;10.70;97.00
18169;DHT22;49877;50.398;30.324;2022-10-31T12:27:23;10.80;97.00
18169;DHT22;49877;50.398;30.324;2022-10-31T12:30:07;10.80;96.80
18169;DHT22;49877;50.398;30.324;2022-10-31T12:32:41;10.80;96.70
18169;DHT22;49877;50.398;30.324;2022-10-31T12:35:25;10.80;96.20
18169;DHT22;49877;50.398;30.324;2022-10-31T12:41:02;10.80;95.70
18169;DHT22;49877;50.398;30.324;2022-10-31T12:43:39;10.70;95.60
18169;DHT22;49877;50.398;30.324;2022-10-31T12:46:15;10.70;95.40
18169;DHT22;49877;50.398;30.324;2022-10-31T12:49:17;10.70;95.20
18169;DHT22;49877;50.398;30.324;2022-10-31T12:51:54;10.60;95.20
18169;DHT22;49877;50.398;30.324;2022-10-31T12:54:39;10.70;95.30
18169;DHT22;49877;50.398;30.324;2022-10-31T12:57:18;10.60;95.40
18169;DHT22;49877;50.398;30.324;2022-10-31T12:59:52;10.60;95.70
18169;DHT22;49877;50.398;30.324;2022-10-31T13:02:23;10.60;94.90
18169;DHT22;49877;50.398;30.324;2022-10-31T13:04:55;10.60;94.20
18169;DHT22;49877;50.398;30.324;2022-10-31T13:07:25;10.60;94.60
18169;DHT22;49877;50.398;30.324;2022-10-31T13:10:00;10.60;95.20
18169;DHT22;49877;50.398;30.324;2022-10-31T13:12:32;10.60;95.40
18169;DHT22;49877;50.398;30.324;2022-10-31T13:15:03;10.60;94.80
18169;DHT22;49877;50.398;30.324;2022-10-31T13:17:34;10.60;94.90
18169;DHT22;49877;50.398;30.324;2022-10-31T13:20:14;10.60;94.90
18169;DHT22;49877;50.398;30.324;2022-10-31T13:22:45;10.60;94.70
18169;DHT22;49877;50.398;30.324;2022-10-31T13:25:15;10.60;94.90
18169;DHT22;49877;50.398;30.324;2022-10-31T13:27:48;10.60;95.00
18169;DHT22;49877;50.398;30.324;2022-10-31T13:30:19;10.50;94.50
18169;DHT22;49877;50.398;30.324;2022-10-31T13:32:50;10.50;94.70
18169;DHT22;49877;50.398;30.324;2022-10-31T13:35:25;10.50;94.90
18169;DHT22;49877;50.398;30.324;2022-10-31T13:38:02;10.50;95.10
18169;DHT22;49877;50.398;30.324;2022-10-31T13:40:36;10.50;95.10
18169;DHT22;49877;50.398;30.324;2022-10-31T13:43:12;10.50;95.10
18169;DHT22;49877;50.398;30.324;2022-10-31T13:45:51;10.50;95.20
18169;DHT22;49877;50.398;30.324;2022-10-31T13:48:31;10.40;95.00
18169;DHT22;49877;50.398;30.324;2022-10-31T13:51:01;10.40;95.40
18169;DHT22;49877;50.398;30.324;2022-10-31T13:53:40;10.40;95.30
18169;DHT22;49877;50.398;30.324;2022-10-31T13:56:20;10.30;95.60
18169;DHT22;49877;50.398;30.324;2022-10-31T13:59:17;10.40;96.00
18169;DHT22;49877;50.398;30.324;2022-10-31T14:01:47;10.40;96.20
18169;DHT22;49877;50.398;30.324;2022-10-31T14:04:16;10.30;96.40
18169;DHT22;49877;50.398;30.324;2022-10-31T14:06:51;10.30;96.40
18169;DHT22;49877;50.398;30.324;2022-10-31T14:09:31;10.20;96.50
18169;DHT22;49877;50.398;30.324;2022-10-31T14:12:03;10.20;96.70
18169;DHT22;49877;50.398;30.324;2022-10-31T14:14:35;10.20;96.70
18169;DHT22;49877;50.398;30.324;2022-10-31T14:17:12;10.20;97.10
18169;DHT22;49877;50.398;30.324;2022-10-31T14:19:41;10.20;97.20
18169;DHT22;49877;50.398;30.324;2022-10-31T14:22:19;10.10;97.60
18169;DHT22;49877;50.398;30.324;2022-10-31T19:00:32;5.60;99.90
18169;DHT22;49877;50.398;30.324;2022-10-31T19:02:59;6.10;99.90
18169;DHT22;49877;50.398;30.324;2022-10-31T19:05:26;6.20;99.90
18169;DHT22;49877;50.398;30.324;2022-10-31T19:07:52;6.20;99.90
18169;DHT22;49877;50.398;30.324;2022-10-31T19:10:19;6.30;99.90
18169;DHT22;49877;50.398;30.324;2022-10-31T19:12:46;6.30;99.90
18169;DHT22;49877;50.398;30.324;2022-10-31T19:15:13;6.30;99.90
18169;DHT22;49877;50.398;30.324;2022-10-31T19:17:41;6.30;99.90
18169;DHT22;49877;50.398;30.324;2022-10-31T19:20:09;6.40;99.90
18169;DHT22;49877;50.398;30.324;2022-10-31T19:22:36;6.30;99.90
18169;DHT22;49877;50.398;30.324;2022-10-31T19:25:03;6.40;99.90
18169;DHT22;49877;50.398;30.324;2022-10-31T19:27:30;6.30;99.90
18169;DHT22;49877;50.398;30.324;2022-10-31T19:29:57;6.40;99.90
18169;DHT22;49877;50.398;30.324;2022-10-31T19:32:25;6.40;99.90
18169;DHT22;49877;50.398;30.324;2022-10-31T19:34:53;6.40;99.90
18169;DHT22;49877;50.398;30.324;2022-10-31T19:37:20;6.40;99.90
18169;DHT22;49877;50.398;30.324;2022-10-31T19:39:47;6.40;99.90
18169;DHT22;49877;50.398;30.324;2022-10-31T19:42:14;6.40;99.90
18169;DHT22;49877;50.398;30.324;2022-10-31T19:44:41;6.40;99.90
18169;DHT22;49877;50.398;30.324;2022-10-31T19:47:07;6.30;99.90
18169;DHT22;49877;50.398;30.324;2022-10-31T19:49:35;6.30;99.90
18169;DHT22;49877;50.398;30.324;2022-10-31T19:52:03;6.30;99.90
18169;DHT22;49877;50.398;30.324;2022-10-31T19:54:30;6.20;99.90
18169;DHT22;49877;50.398;30.324;2022-10-31T19:56:57;6.20;99.90
18169;DHT22;49877;50.398;30.324;2022-10-31T19:59:24;6.20;99.90
18169;DHT22;49877;50.398;30.324;2022-10-31T20:01:51;6.10;99.90
18169;DHT22;49877;50.398;30.324;2022-10-31T20:04:17;6.10;99.90
18169;DHT22;49877;50.398;30.324;2022-10-31T20:06:45;6.10;99.90
18169;DHT22;49877;50.398;30.324;2022-10-31T20:09:13;6.10;99.90
18169;DHT22;49877;50.398;30.324;2022-10-31T20:11:41;6.10;99.90
18169;DHT22;49877;50.398;30.324;2022-10-31T20:14:10;6.10;99.90
18169;DHT22;49877;50.398;30.324;2022-10-31T20:16:38;6.10;99.90
18169;DHT22;49877;50.398;30.324;2022-10-31T20:19:05;6.10;99.90
18169;DHT22;49877;50.398;30.324;2022-10-31T20:21:35;6.10;99.90
18169;DHT22;49877;50.398;30.324;2022-10-31T20:24:04;6.00;99.90
18169;DHT22;49877;50.398;30.324;2022-10-31T20:26:34;6.00;99.90
18169;DHT22;49877;50.398;30.324;2022-10-31T20:29:02;6.00;99.90
18169;DHT22;49877;50.398;30.324;2022-10-31T20:31:31;6.00;99.90
18169;DHT22;49877;50.398;30.324;2022-10-31T20:33:58;6.00;99.90
18169;DHT22;49877;50.398;30.324;2022-10-31T20:36:25;5.90;99.90
18169;DHT22;49877;50.398;30.324;2022-10-31T20:38:53;5.90;99.90
18169;DHT22;49877;50.398;30.324;2022-10-31T20:41:20;5.90;99.90